sensor_id;sensor_type;location;lat;lon;timestamp;temperature;humidity
34406;DHT22;20658;45.630;8.886;2023-07-09T00:02:18;23.30;76.80
34406;DHT22;20658;45.630;8.886;2023-07-09T00:04:53;23.20;76.90
34406;DHT22;20658;45.630;8.886;2023-07-09T00:07:28;23.20;77.40
34406;DHT22;20658;45.630;8.886;2023-07-09T00:09:57;23.20;77.70
34406;DHT22;20658;45.630;8.886;2023-07-09T00:12:31;23.10;78.00
34406;DHT22;20658;45.630;8.886;2023-07-09T00:15:05;23.10;78.30
34406;DHT22;20658;45.630;8.886;2023-07-09T00:17:41;23.10;78.50
34406;DHT22;20658;45.630;8.886;2023-07-09T00:20:13;23.00;79.20
34406;DHT22;20658;45.630;8.886;2023-07-09T00:22:48;23.00;79.50
34406;DHT22;20658;45.630;8.886;2023-07-09T00:25:23;22.90;80.00
34406;DHT22;20658;45.630;8.886;2023-07-09T00:27:52;22.90;80.20
34406;DHT22;20658;45.630;8.886;2023-07-09T00:30:26;22.80;80.60
34406;DHT22;20658;45.630;8.886;2023-07-09T00:32:54;22.80;80.90
34406;DHT22;20658;45.630;8.886;2023-07-09T00:35:29;22.80;81.50
34406;DHT22;20658;45.630;8.886;2023-07-09T00:38:02;22.70;81.50
34406;DHT22;20658;45.630;8.886;2023-07-09T00:40:30;22.70;81.70
34406;DHT22;20658;45.630;8.886;2023-07-09T00:43:11;22.70;81.80
34406;DHT22;20658;45.630;8.886;2023-07-09T00:49:15;22.60;82.10
34406;DHT22;20658;45.630;8.886;2023-07-09T00:52:05;22.60;82.30
34406;DHT22;20658;45.630;8.886;2023-07-09T00:54:51;22.60;82.60
34406;DHT22;20658;45.630;8.886;2023-07-09T00:57:25;22.60;82.80
34406;DHT22;20658;45.630;8.886;2023-07-09T01:00:03;22.50;83.10
34406;DHT22;20658;45.630;8.886;2023-07-09T01:02:45;22.50;83.40
34406;DHT22;20658;45.630;8.886;2023-07-09T01:05:21;22.50;83.60
34406;DHT22;20658;45.630;8.886;2023-07-09T01:07:55;22.50;83.80
34406;DHT22;20658;45.630;8.886;2023-07-09T01:10:25;22.50;83.80
34406;DHT22;20658;45.630;8.886;2023-07-09T01:12:53;22.50;83.70
34406;DHT22;20658;45.630;8.886;2023-07-09T01:15:23;22.50;83.90
34406;DHT22;20658;45.630;8.886;2023-07-09T01:17:56;22.40;83.90
34406;DHT22;20658;45.630;8.886;2023-07-09T01:20:27;22.40;84.20
34406;DHT22;20658;45.630;8.886;2023-07-09T01:22:56;22.40;84.40
34406;DHT22;20658;45.630;8.886;2023-07-09T01:25:27;22.30;84.30
34406;DHT22;20658;45.630;8.886;2023-07-09T01:27:57;22.30;84.50
34406;DHT22;20658;45.630;8.886;2023-07-09T01:30:29;22.30;84.90
34406;DHT22;20658;45.630;8.886;2023-07-09T01:33:00;22.30;85.20
34406;DHT22;20658;45.630;8.886;2023-07-09T01:35:30;22.30;85.00
34406;DHT22;20658;45.630;8.886;2023-07-09T01:38:02;22.30;85.30
34406;DHT22;20658;45.630;8.886;2023-07-09T01:40:38;22.20;85.70
34406;DHT22;20658;45.630;8.886;2023-07-09T01:43:11;22.20;85.90
34406;DHT22;20658;45.630;8.886;2023-07-09T01:45:45;22.20;86.40
34406;DHT22;20658;45.630;8.886;2023-07-09T01:48:16;22.20;86.50
34406;DHT22;20658;45.630;8.886;2023-07-09T01:50:52;22.10;86.80
34406;DHT22;20658;45.630;8.886;2023-07-09T01:53:26;22.10;87.10
34406;DHT22;20658;45.630;8.886;2023-07-09T01:56:02;22.10;87.30
34406;DHT22;20658;45.630;8.886;2023-07-09T01:58:39;22.00;87.60
34406;DHT22;20658;45.630;8.886;2023-07-09T02:01:13;22.00;87.70
34406;DHT22;20658;45.630;8.886;2023-07-09T02:03:41;22.00;88.00
34406;DHT22;20658;45.630;8.886;2023-07-09T02:06:15;22.00;88.20
34406;DHT22;20658;45.630;8.886;2023-07-09T02:08:54;22.00;88.20
34406;DHT22;20658;45.630;8.886;2023-07-09T02:11:28;21.90;88.60
34406;DHT22;20658;45.630;8.886;2023-07-09T02:14:01;22.00;88.50
34406;DHT22;20658;45.630;8.886;2023-07-09T02:16:35;21.90;88.50
34406;DHT22;20658;45.630;8.886;2023-07-09T02:19:08;21.90;88.80
34406;DHT22;20658;45.630;8.886;2023-07-09T02:21:41;21.90;89.20
34406;DHT22;20658;45.630;8.886;2023-07-09T02:24:16;21.80;89.30
34406;DHT22;20658;45.630;8.886;2023-07-09T02:26:44;21.80;89.50
34406;DHT22;20658;45.630;8.886;2023-07-09T02:29:13;21.80;89.40
34406;DHT22;20658;45.630;8.886;2023-07-09T02:31:48;21.80;89.80
34406;DHT22;20658;45.630;8.886;2023-07-09T02:34:16;21.70;90.00
34406;DHT22;20658;45.630;8.886;2023-07-09T02:36:46;21.70;90.20
34406;DHT22;20658;45.630;8.886;2023-07-09T02:39:22;21.70;90.50
34406;DHT22;20658;45.630;8.886;2023-07-09T02:41:51;21.70;90.50
34406;DHT22;20658;45.630;8.886;2023-07-09T02:44:25;21.70;90.60
34406;DHT22;20658;45.630;8.886;2023-07-09T02:46:58;21.70;90.90
34406;DHT22;20658;45.630;8.886;2023-07-09T02:49:32;21.60;90.90
34406;DHT22;20658;45.630;8.886;2023-07-09T02:52:05;21.60;91.30
34406;DHT22;20658;45.630;8.886;2023-07-09T02:54:36;21.60;91.20
34406;DHT22;20658;45.630;8.886;2023-07-09T02:57:09;21.60;91.10
34406;DHT22;20658;45.630;8.886;2023-07-09T02:59:42;21.60;91.40
34406;DHT22;20658;45.630;8.886;2023-07-09T03:02:16;21.50;91.70
34406;DHT22;20658;45.630;8.886;2023-07-09T03:04:44;21.50;91.60
34406;DHT22;20658;45.630;8.886;2023-07-09T03:07:18;21.50;91.70
34406;DHT22;20658;45.630;8.886;2023-07-09T03:09:53;21.50;91.70
34406;DHT22;20658;45.630;8.886;2023-07-09T03:12:21;21.40;91.80
34406;DHT22;20658;45.630;8.886;2023-07-09T03:14:55;21.40;92.00
34406;DHT22;20658;45.630;8.886;2023-07-09T03:17:23;21.40;92.00
34406;DHT22;20658;45.630;8.886;2023-07-09T03:19:51;21.40;92.00
34406;DHT22;20658;45.630;8.886;2023-07-09T03:22:25;21.40;92.20
34406;DHT22;20658;45.630;8.886;2023-07-09T03:24:55;21.40;92.00
34406;DHT22;20658;45.630;8.886;2023-07-09T03:27:28;21.40;92.00
34406;DHT22;20658;45.630;8.886;2023-07-09T03:30:01;21.40;92.10
34406;DHT22;20658;45.630;8.886;2023-07-09T03:32:34;21.30;92.30
34406;DHT22;20658;45.630;8.886;2023-07-09T03:35:03;21.30;92.10
34406;DHT22;20658;45.630;8.886;2023-07-09T03:37:36;21.30;92.40
34406;DHT22;20658;45.630;8.886;2023-07-09T03:40:10;21.30;92.60
34406;DHT22;20658;45.630;8.886;2023-07-09T03:42:44;21.30;92.50
34406;DHT22;20658;45.630;8.886;2023-07-09T03:45:17;21.30;92.60
34406;DHT22;20658;45.630;8.886;2023-07-09T03:47:45;21.30;92.80
34406;DHT22;20658;45.630;8.886;2023-07-09T03:50:14;21.20;92.80
34406;DHT22;20658;45.630;8.886;2023-07-09T03:52:47;21.30;93.10
34406;DHT22;20658;45.630;8.886;2023-07-09T03:55:22;21.20;93.00
34406;DHT22;20658;45.630;8.886;2023-07-09T03:57:58;21.20;93.20
34406;DHT22;20658;45.630;8.886;2023-07-09T04:00:32;21.20;93.30
34406;DHT22;20658;45.630;8.886;2023-07-09T04:03:06;21.20;93.30
34406;DHT22;20658;45.630;8.886;2023-07-09T04:05:40;21.20;93.50
34406;DHT22;20658;45.630;8.886;2023-07-09T04:08:13;21.20;93.40
34406;DHT22;20658;45.630;8.886;2023-07-09T04:10:48;21.20;93.50
34406;DHT22;20658;45.630;8.886;2023-07-09T04:13:21;21.30;93.30
34406;DHT22;20658;45.630;8.886;2023-07-09T04:15:55;21.30;93.20
34406;DHT22;20658;45.630;8.886;2023-07-09T04:18:28;21.30;93.30
34406;DHT22;20658;45.630;8.886;2023-07-09T04:21:02;21.30;93.30
34406;DHT22;20658;45.630;8.886;2023-07-09T04:23:35;21.30;93.30
34406;DHT22;20658;45.630;8.886;2023-07-09T04:26:13;21.30;93.30
34406;DHT22;20658;45.630;8.886;2023-07-09T04:28:46;21.30;93.20
34406;DHT22;20658;45.630;8.886;2023-07-09T04:31:20;21.40;92.90
34406;DHT22;20658;45.630;8.886;2023-07-09T04:33:53;21.40;92.90
34406;DHT22;20658;45.630;8.886;2023-07-09T04:36:26;21.40;92.90
34406;DHT22;20658;45.630;8.886;2023-07-09T04:38:59;21.40;92.80
34406;DHT22;20658;45.630;8.886;2023-07-09T04:41:34;21.40;92.70
34406;DHT22;20658;45.630;8.886;2023-07-09T04:44:02;21.40;92.50
34406;DHT22;20658;45.630;8.886;2023-07-09T04:46:36;21.50;92.70
34406;DHT22;20658;45.630;8.886;2023-07-09T04:49:04;21.60;91.80
34406;DHT22;20658;45.630;8.886;2023-07-09T04:51:38;21.60;91.80
34406;DHT22;20658;45.630;8.886;2023-07-09T04:54:11;21.60;91.80
34406;DHT22;20658;45.630;8.886;2023-07-09T04:56:48;21.60;91.70
34406;DHT22;20658;45.630;8.886;2023-07-09T04:59:22;21.70;91.60
34406;DHT22;20658;45.630;8.886;2023-07-09T05:01:55;21.80;90.90
34406;DHT22;20658;45.630;8.886;2023-07-09T05:04:28;22.10;90.00
34406;DHT22;20658;45.630;8.886;2023-07-09T05:07:02;22.50;88.10
34406;DHT22;20658;45.630;8.886;2023-07-09T05:09:35;22.80;86.10
34406;DHT22;20658;45.630;8.886;2023-07-09T05:12:11;23.10;84.70
34406;DHT22;20658;45.630;8.886;2023-07-09T05:14:44;23.40;83.70
34406;DHT22;20658;45.630;8.886;2023-07-09T05:17:13;23.60;81.80
34406;DHT22;20658;45.630;8.886;2023-07-09T05:19:46;23.70;81.20
34406;DHT22;20658;45.630;8.886;2023-07-09T05:22:20;24.00;79.30
34406;DHT22;20658;45.630;8.886;2023-07-09T05:24:53;24.20;78.40
34406;DHT22;20658;45.630;8.886;2023-07-09T05:27:28;24.20;77.80
34406;DHT22;20658;45.630;8.886;2023-07-09T05:30:01;24.40;77.00
34406;DHT22;20658;45.630;8.886;2023-07-09T05:32:36;24.60;76.60
34406;DHT22;20658;45.630;8.886;2023-07-09T05:35:09;24.80;74.90
34406;DHT22;20658;45.630;8.886;2023-07-09T05:37:43;25.00;74.50
34406;DHT22;20658;45.630;8.886;2023-07-09T05:40:16;25.30;73.50
34406;DHT22;20658;45.630;8.886;2023-07-09T05:42:51;25.50;71.90
34406;DHT22;20658;45.630;8.886;2023-07-09T05:45:24;25.70;71.40
34406;DHT22;20658;45.630;8.886;2023-07-09T05:47:57;25.90;70.00
34406;DHT22;20658;45.630;8.886;2023-07-09T05:50:33;26.00;70.00
34406;DHT22;20658;45.630;8.886;2023-07-09T05:53:07;26.20;69.40
34406;DHT22;20658;45.630;8.886;2023-07-09T05:55:40;26.20;69.20
34406;DHT22;20658;45.630;8.886;2023-07-09T05:58:15;26.40;68.20
34406;DHT22;20658;45.630;8.886;2023-07-09T06:00:49;26.40;67.90
34406;DHT22;20658;45.630;8.886;2023-07-09T06:03:26;26.60;67.50
34406;DHT22;20658;45.630;8.886;2023-07-09T06:06:00;26.60;66.90
34406;DHT22;20658;45.630;8.886;2023-07-09T06:08:33;26.60;67.40
34406;DHT22;20658;45.630;8.886;2023-07-09T06:11:06;26.90;65.60
34406;DHT22;20658;45.630;8.886;2023-07-09T06:13:41;27.00;66.00
34406;DHT22;20658;45.630;8.886;2023-07-09T06:16:15;27.40;65.40
34406;DHT22;20658;45.630;8.886;2023-07-09T06:18:51;27.20;64.80
34406;DHT22;20658;45.630;8.886;2023-07-09T06:21:24;27.50;64.10
34406;DHT22;20658;45.630;8.886;2023-07-09T06:23:57;27.90;62.70
34406;DHT22;20658;45.630;8.886;2023-07-09T06:26:30;28.00;62.40
34406;DHT22;20658;45.630;8.886;2023-07-09T06:29:05;28.30;61.10
34406;DHT22;20658;45.630;8.886;2023-07-09T06:31:38;28.40;60.30
34406;DHT22;20658;45.630;8.886;2023-07-09T06:34:14;28.40;60.60
34406;DHT22;20658;45.630;8.886;2023-07-09T06:36:48;28.40;60.40
34406;DHT22;20658;45.630;8.886;2023-07-09T06:39:21;28.00;61.00
34406;DHT22;20658;45.630;8.886;2023-07-09T06:41:54;28.00;61.40
34406;DHT22;20658;45.630;8.886;2023-07-09T06:44:55;28.30;60.80
34406;DHT22;20658;45.630;8.886;2023-07-09T06:47:28;28.60;60.20
34406;DHT22;20658;45.630;8.886;2023-07-09T06:50:02;28.90;59.10
34406;DHT22;20658;45.630;8.886;2023-07-09T06:52:35;29.10;58.60
34406;DHT22;20658;45.630;8.886;2023-07-09T06:55:08;29.30;57.70
34406;DHT22;20658;45.630;8.886;2023-07-09T06:57:42;29.60;56.90
34406;DHT22;20658;45.630;8.886;2023-07-09T07:00:17;29.80;55.50
34406;DHT22;20658;45.630;8.886;2023-07-09T07:02:50;29.90;54.40
34406;DHT22;20658;45.630;8.886;2023-07-09T07:05:24;30.00;53.60
34406;DHT22;20658;45.630;8.886;2023-07-09T07:07:53;30.10;52.80
34406;DHT22;20658;45.630;8.886;2023-07-09T07:10:27;30.40;51.90
34406;DHT22;20658;45.630;8.886;2023-07-09T07:12:56;30.20;51.70
34406;DHT22;20658;45.630;8.886;2023-07-09T07:15:31;30.30;51.10
34406;DHT22;20658;45.630;8.886;2023-07-09T07:18:04;30.60;51.00
34406;DHT22;20658;45.630;8.886;2023-07-09T07:20:38;30.50;51.30
34406;DHT22;20658;45.630;8.886;2023-07-09T07:23:11;30.20;51.80
34406;DHT22;20658;45.630;8.886;2023-07-09T07:25:45;30.30;51.40
34406;DHT22;20658;45.630;8.886;2023-07-09T07:28:19;30.50;50.60
34406;DHT22;20658;45.630;8.886;2023-07-09T07:31:01;30.80;50.40
34406;DHT22;20658;45.630;8.886;2023-07-09T07:33:35;31.10;50.40
34406;DHT22;20658;45.630;8.886;2023-07-09T07:36:09;31.10;49.40
34406;DHT22;20658;45.630;8.886;2023-07-09T07:38:42;30.10;50.10
34406;DHT22;20658;45.630;8.886;2023-07-09T07:41:11;30.20;50.90
34406;DHT22;20658;45.630;8.886;2023-07-09T07:43:44;30.50;50.40
34406;DHT22;20658;45.630;8.886;2023-07-09T07:46:18;30.60;49.20
34406;DHT22;20658;45.630;8.886;2023-07-09T07:48:52;30.90;49.50
34406;DHT22;20658;45.630;8.886;2023-07-09T07:51:25;31.00;49.50
34406;DHT22;20658;45.630;8.886;2023-07-09T07:53:59;30.70;50.30
34406;DHT22;20658;45.630;8.886;2023-07-09T07:56:33;30.60;50.30
34406;DHT22;20658;45.630;8.886;2023-07-09T07:59:06;30.80;49.80
34406;DHT22;20658;45.630;8.886;2023-07-09T08:01:40;30.80;49.70
34406;DHT22;20658;45.630;8.886;2023-07-09T08:04:14;31.00;50.50
34406;DHT22;20658;45.630;8.886;2023-07-09T08:06:47;31.20;49.80
34406;DHT22;20658;45.630;8.886;2023-07-09T08:09:21;31.00;49.80
34406;DHT22;20658;45.630;8.886;2023-07-09T08:11:54;31.20;49.40
34406;DHT22;20658;45.630;8.886;2023-07-09T08:14:23;31.40;48.80
34406;DHT22;20658;45.630;8.886;2023-07-09T08:16:58;31.00;49.20
34406;DHT22;20658;45.630;8.886;2023-07-09T08:19:32;31.00;49.90
34406;DHT22;20658;45.630;8.886;2023-07-09T08:22:05;31.10;49.50
34406;DHT22;20658;45.630;8.886;2023-07-09T08:24:39;31.20;48.80
34406;DHT22;20658;45.630;8.886;2023-07-09T08:27:12;31.10;49.30
34406;DHT22;20658;45.630;8.886;2023-07-09T08:29:46;31.50;48.90
34406;DHT22;20658;45.630;8.886;2023-07-09T08:32:15;31.70;48.20
34406;DHT22;20658;45.630;8.886;2023-07-09T08:34:49;31.80;47.90
34406;DHT22;20658;45.630;8.886;2023-07-09T08:37:22;31.90;47.60
34406;DHT22;20658;45.630;8.886;2023-07-09T08:39:55;31.70;48.80
34406;DHT22;20658;45.630;8.886;2023-07-09T08:42:35;31.40;48.60
34406;DHT22;20658;45.630;8.886;2023-07-09T08:45:24;31.50;48.60
34406;DHT22;20658;45.630;8.886;2023-07-09T08:48:11;31.70;47.80
34406;DHT22;20658;45.630;8.886;2023-07-09T08:50:54;31.90;47.50
34406;DHT22;20658;45.630;8.886;2023-07-09T08:53:36;32.10;47.00
34406;DHT22;20658;45.630;8.886;2023-07-09T08:56:13;31.80;46.20
34406;DHT22;20658;45.630;8.886;2023-07-09T08:58:48;32.00;47.10
34406;DHT22;20658;45.630;8.886;2023-07-09T09:01:27;32.00;47.20
34406;DHT22;20658;45.630;8.886;2023-07-09T09:04:07;32.30;46.10
34406;DHT22;20658;45.630;8.886;2023-07-09T09:06:42;32.40;46.10
34406;DHT22;20658;45.630;8.886;2023-07-09T09:09:25;32.20;46.00
34406;DHT22;20658;45.630;8.886;2023-07-09T09:12:03;32.00;46.80
34406;DHT22;20658;45.630;8.886;2023-07-09T09:14:44;32.00;46.70
34406;DHT22;20658;45.630;8.886;2023-07-09T09:17:20;31.90;45.80
34406;DHT22;20658;45.630;8.886;2023-07-09T09:19:57;32.00;45.90
34406;DHT22;20658;45.630;8.886;2023-07-09T09:22:31;32.00;45.70
34406;DHT22;20658;45.630;8.886;2023-07-09T09:25:18;32.70;44.60
34406;DHT22;20658;45.630;8.886;2023-07-09T09:27:58;33.00;45.10
34406;DHT22;20658;45.630;8.886;2023-07-09T09:30:32;33.20;45.00
34406;DHT22;20658;45.630;8.886;2023-07-09T09:33:08;33.40;44.50
34406;DHT22;20658;45.630;8.886;2023-07-09T09:35:45;33.60;44.40
34406;DHT22;20658;45.630;8.886;2023-07-09T09:38:21;33.70;44.10
34406;DHT22;20658;45.630;8.886;2023-07-09T09:40:50;33.60;44.30
34406;DHT22;20658;45.630;8.886;2023-07-09T09:43:23;33.50;44.20
34406;DHT22;20658;45.630;8.886;2023-07-09T09:45:59;33.30;44.20
34406;DHT22;20658;45.630;8.886;2023-07-09T09:48:33;33.70;43.90
34406;DHT22;20658;45.630;8.886;2023-07-09T09:51:10;34.00;43.60
34406;DHT22;20658;45.630;8.886;2023-07-09T09:53:40;34.30;43.50
34406;DHT22;20658;45.630;8.886;2023-07-09T09:56:19;34.30;42.70
34406;DHT22;20658;45.630;8.886;2023-07-09T09:58:53;34.50;42.50
34406;DHT22;20658;45.630;8.886;2023-07-09T10:01:31;34.50;42.20
34406;DHT22;20658;45.630;8.886;2023-07-09T10:04:08;33.90;42.80
34406;DHT22;20658;45.630;8.886;2023-07-09T10:06:42;34.10;43.80
34406;DHT22;20658;45.630;8.886;2023-07-09T10:09:26;34.30;43.20
34406;DHT22;20658;45.630;8.886;2023-07-09T10:12:13;34.40;43.00
34406;DHT22;20658;45.630;8.886;2023-07-09T10:14:56;34.70;42.60
34406;DHT22;20658;45.630;8.886;2023-07-09T10:17:37;34.50;42.90
34406;DHT22;20658;45.630;8.886;2023-07-09T10:20:20;34.50;42.60
34406;DHT22;20658;45.630;8.886;2023-07-09T10:23:03;34.00;42.90
34406;DHT22;20658;45.630;8.886;2023-07-09T10:25:57;34.00;43.40
34406;DHT22;20658;45.630;8.886;2023-07-09T10:31:52;34.00;43.40
34406;DHT22;20658;45.630;8.886;2023-07-09T10:34:37;34.00;42.90
34406;DHT22;20658;45.630;8.886;2023-07-09T10:37:33;33.60;43.20
34406;DHT22;20658;45.630;8.886;2023-07-09T10:40:25;33.80;42.70
34406;DHT22;20658;45.630;8.886;2023-07-09T10:43:05;34.00;43.00
34406;DHT22;20658;45.630;8.886;2023-07-09T10:45:47;34.50;42.20
34406;DHT22;20658;45.630;8.886;2023-07-09T10:48:18;35.00;42.20
34406;DHT22;20658;45.630;8.886;2023-07-09T10:50:54;35.00;41.50
34406;DHT22;20658;45.630;8.886;2023-07-09T10:53:31;35.20;40.90
34406;DHT22;20658;45.630;8.886;2023-07-09T10:56:15;35.40;41.00
34406;DHT22;20658;45.630;8.886;2023-07-09T10:59:00;35.10;40.30
34406;DHT22;20658;45.630;8.886;2023-07-09T11:01:35;35.10;41.10
34406;DHT22;20658;45.630;8.886;2023-07-09T11:04:19;34.80;40.90
34406;DHT22;20658;45.630;8.886;2023-07-09T11:07:05;34.60;41.00
34406;DHT22;20658;45.630;8.886;2023-07-09T11:09:46;34.30;42.40
34406;DHT22;20658;45.630;8.886;2023-07-09T11:12:27;34.10;42.60
34406;DHT22;20658;45.630;8.886;2023-07-09T11:15:00;34.10;42.60
34406;DHT22;20658;45.630;8.886;2023-07-09T11:17:39;34.30;43.30
34406;DHT22;20658;45.630;8.886;2023-07-09T11:20:18;34.70;42.80
34406;DHT22;20658;45.630;8.886;2023-07-09T11:22:54;34.70;41.20
34406;DHT22;20658;45.630;8.886;2023-07-09T11:25:39;34.90;41.20
34406;DHT22;20658;45.630;8.886;2023-07-09T11:28:16;35.10;42.00
34406;DHT22;20658;45.630;8.886;2023-07-09T11:30:51;35.40;41.10
34406;DHT22;20658;45.630;8.886;2023-07-09T11:33:27;35.30;40.60
34406;DHT22;20658;45.630;8.886;2023-07-09T11:36:11;35.30;41.00
34406;DHT22;20658;45.630;8.886;2023-07-09T11:38:52;35.10;40.70
34406;DHT22;20658;45.630;8.886;2023-07-09T11:41:38;35.30;40.80
34406;DHT22;20658;45.630;8.886;2023-07-09T11:44:17;35.40;40.30
34406;DHT22;20658;45.630;8.886;2023-07-09T11:47:17;35.40;39.80
34406;DHT22;20658;45.630;8.886;2023-07-09T11:49:54;35.50;40.70
34406;DHT22;20658;45.630;8.886;2023-07-09T11:52:33;35.90;39.90
34406;DHT22;20658;45.630;8.886;2023-07-09T11:55:21;36.20;39.20
34406;DHT22;20658;45.630;8.886;2023-07-09T11:58:01;36.20;39.00
34406;DHT22;20658;45.630;8.886;2023-07-09T12:00:39;36.30;39.00
34406;DHT22;20658;45.630;8.886;2023-07-09T12:03:18;35.80;38.10
34406;DHT22;20658;45.630;8.886;2023-07-09T12:05:54;35.50;38.90
34406;DHT22;20658;45.630;8.886;2023-07-09T12:08:32;36.00;39.50
34406;DHT22;20658;45.630;8.886;2023-07-09T12:11:18;36.30;38.60
34406;DHT22;20658;45.630;8.886;2023-07-09T12:14:02;36.50;38.40
34406;DHT22;20658;45.630;8.886;2023-07-09T12:16:40;36.70;37.90
34406;DHT22;20658;45.630;8.886;2023-07-09T12:19:15;36.60;37.90
34406;DHT22;20658;45.630;8.886;2023-07-09T12:21:52;36.90;37.30
34406;DHT22;20658;45.630;8.886;2023-07-09T12:24:30;36.60;35.80
34406;DHT22;20658;45.630;8.886;2023-07-09T12:27:19;36.80;36.70
34406;DHT22;20658;45.630;8.886;2023-07-09T12:29:56;37.00;37.60
34406;DHT22;20658;45.630;8.886;2023-07-09T12:32:31;37.20;36.70
34406;DHT22;20658;45.630;8.886;2023-07-09T12:35:05;37.30;36.90
34406;DHT22;20658;45.630;8.886;2023-07-09T12:37:46;37.40;36.40
34406;DHT22;20658;45.630;8.886;2023-07-09T12:40:23;37.20;36.60
34406;DHT22;20658;45.630;8.886;2023-07-09T12:43:02;37.20;37.00
34406;DHT22;20658;45.630;8.886;2023-07-09T12:45:36;37.30;36.80
34406;DHT22;20658;45.630;8.886;2023-07-09T12:48:12;37.50;37.10
34406;DHT22;20658;45.630;8.886;2023-07-09T12:50:49;37.80;36.50
34406;DHT22;20658;45.630;8.886;2023-07-09T12:53:27;37.80;36.80
34406;DHT22;20658;45.630;8.886;2023-07-09T12:56:11;37.80;36.80
34406;DHT22;20658;45.630;8.886;2023-07-09T12:58:46;37.90;36.70
34406;DHT22;20658;45.630;8.886;2023-07-09T13:01:19;37.60;36.90
34406;DHT22;20658;45.630;8.886;2023-07-09T13:03:55;37.60;36.90
34406;DHT22;20658;45.630;8.886;2023-07-09T13:06:34;37.30;37.40
34406;DHT22;20658;45.630;8.886;2023-07-09T13:09:15;37.60;36.50
34406;DHT22;20658;45.630;8.886;2023-07-09T13:11:54;37.90;36.80
34406;DHT22;20658;45.630;8.886;2023-07-09T13:14:30;37.90;36.40
34406;DHT22;20658;45.630;8.886;2023-07-09T13:17:05;37.70;36.80
34406;DHT22;20658;45.630;8.886;2023-07-09T13:19:41;37.70;36.40
34406;DHT22;20658;45.630;8.886;2023-07-09T13:22:15;38.00;37.40
34406;DHT22;20658;45.630;8.886;2023-07-09T13:24:45;38.20;36.30
34406;DHT22;20658;45.630;8.886;2023-07-09T13:27:19;38.10;36.40
34406;DHT22;20658;45.630;8.886;2023-07-09T13:29:52;38.00;36.60
34406;DHT22;20658;45.630;8.886;2023-07-09T13:32:25;38.00;36.30
34406;DHT22;20658;45.630;8.886;2023-07-09T13:35:00;38.40;35.80
34406;DHT22;20658;45.630;8.886;2023-07-09T13:37:33;38.40;34.40
34406;DHT22;20658;45.630;8.886;2023-07-09T13:40:08;38.40;35.00
34406;DHT22;20658;45.630;8.886;2023-07-09T13:42:44;38.30;35.30
34406;DHT22;20658;45.630;8.886;2023-07-09T13:45:20;38.30;35.00
34406;DHT22;20658;45.630;8.886;2023-07-09T13:47:51;37.80;35.80
34406;DHT22;20658;45.630;8.886;2023-07-09T13:50:21;37.80;35.30
34406;DHT22;20658;45.630;8.886;2023-07-09T13:52:55;38.30;35.20
34406;DHT22;20658;45.630;8.886;2023-07-09T13:55:28;38.50;34.90
34406;DHT22;20658;45.630;8.886;2023-07-09T13:57:57;38.60;34.10
34406;DHT22;20658;45.630;8.886;2023-07-09T14:00:30;38.90;33.90
34406;DHT22;20658;45.630;8.886;2023-07-09T14:03:10;38.80;33.50
34406;DHT22;20658;45.630;8.886;2023-07-09T14:05:49;38.90;34.20
34406;DHT22;20658;45.630;8.886;2023-07-09T14:08:18;38.80;34.60
34406;DHT22;20658;45.630;8.886;2023-07-09T14:10:53;38.60;34.70
34406;DHT22;20658;45.630;8.886;2023-07-09T14:13:25;38.60;34.40
34406;DHT22;20658;45.630;8.886;2023-07-09T14:15:53;38.60;34.00
34406;DHT22;20658;45.630;8.886;2023-07-09T14:18:33;38.70;34.30
34406;DHT22;20658;45.630;8.886;2023-07-09T14:21:12;38.30;34.30
34406;DHT22;20658;45.630;8.886;2023-07-09T14:23:46;37.90;34.40
34406;DHT22;20658;45.630;8.886;2023-07-09T14:26:20;38.30;36.00
34406;DHT22;20658;45.630;8.886;2023-07-09T14:28:53;38.60;35.20
34406;DHT22;20658;45.630;8.886;2023-07-09T14:31:27;38.90;34.60
34406;DHT22;20658;45.630;8.886;2023-07-09T14:34:19;39.00;34.80
34406;DHT22;20658;45.630;8.886;2023-07-09T14:36:59;39.20;33.90
34406;DHT22;20658;45.630;8.886;2023-07-09T14:39:33;39.10;34.70
34406;DHT22;20658;45.630;8.886;2023-07-09T14:42:12;39.20;34.90
34406;DHT22;20658;45.630;8.886;2023-07-09T14:44:47;39.10;35.50
34406;DHT22;20658;45.630;8.886;2023-07-09T14:47:23;39.20;34.90
34406;DHT22;20658;45.630;8.886;2023-07-09T14:50:09;39.40;34.60
34406;DHT22;20658;45.630;8.886;2023-07-09T14:52:45;39.40;34.70
34406;DHT22;20658;45.630;8.886;2023-07-09T14:55:22;39.70;34.00
34406;DHT22;20658;45.630;8.886;2023-07-09T14:57:57;39.60;33.50
34406;DHT22;20658;45.630;8.886;2023-07-09T15:00:32;39.40;34.10
34406;DHT22;20658;45.630;8.886;2023-07-09T15:03:09;39.20;34.40
34406;DHT22;20658;45.630;8.886;2023-07-09T15:05:43;39.40;34.30
34406;DHT22;20658;45.630;8.886;2023-07-09T15:08:19;39.60;34.20
34406;DHT22;20658;45.630;8.886;2023-07-09T15:10:55;39.70;34.10
34406;DHT22;20658;45.630;8.886;2023-07-09T15:13:29;39.60;33.50
34406;DHT22;20658;45.630;8.886;2023-07-09T15:16:06;39.50;34.30
34406;DHT22;20658;45.630;8.886;2023-07-09T15:18:41;39.70;33.80
34406;DHT22;20658;45.630;8.886;2023-07-09T15:21:15;39.80;33.20
34406;DHT22;20658;45.630;8.886;2023-07-09T15:23:55;39.50;33.70
34406;DHT22;20658;45.630;8.886;2023-07-09T15:26:28;39.40;34.30
34406;DHT22;20658;45.630;8.886;2023-07-09T15:29:02;39.60;34.60
34406;DHT22;20658;45.630;8.886;2023-07-09T15:31:38;40.00;34.70
34406;DHT22;20658;45.630;8.886;2023-07-09T15:34:11;40.20;34.00
34406;DHT22;20658;45.630;8.886;2023-07-09T15:36:48;40.20;33.50
34406;DHT22;20658;45.630;8.886;2023-07-09T15:39:23;40.20;33.50
34406;DHT22;20658;45.630;8.886;2023-07-09T15:41:53;40.10;33.30
34406;DHT22;20658;45.630;8.886;2023-07-09T15:44:26;40.30;33.50
34406;DHT22;20658;45.630;8.886;2023-07-09T15:46:56;40.40;33.40
34406;DHT22;20658;45.630;8.886;2023-07-09T15:49:30;40.40;32.90
34406;DHT22;20658;45.630;8.886;2023-07-09T15:52:03;40.70;32.70
34406;DHT22;20658;45.630;8.886;2023-07-09T15:54:39;40.80;32.90
34406;DHT22;20658;45.630;8.886;2023-07-09T15:57:14;40.60;33.10
34406;DHT22;20658;45.630;8.886;2023-07-09T15:59:48;40.60;33.20
34406;DHT22;20658;45.630;8.886;2023-07-09T16:02:21;40.50;32.70
34406;DHT22;20658;45.630;8.886;2023-07-09T16:04:54;40.30;33.10
34406;DHT22;20658;45.630;8.886;2023-07-09T16:07:27;40.30;33.40
34406;DHT22;20658;45.630;8.886;2023-07-09T16:10:02;40.50;33.60
34406;DHT22;20658;45.630;8.886;2023-07-09T16:12:31;40.90;33.10
34406;DHT22;20658;45.630;8.886;2023-07-09T16:15:05;41.00;32.80
34406;DHT22;20658;45.630;8.886;2023-07-09T16:17:42;41.10;32.60
34406;DHT22;20658;45.630;8.886;2023-07-09T16:20:17;41.30;32.30
34406;DHT22;20658;45.630;8.886;2023-07-09T16:22:57;41.10;32.20
34406;DHT22;20658;45.630;8.886;2023-07-09T16:25:33;40.90;31.50
34406;DHT22;20658;45.630;8.886;2023-07-09T16:28:10;40.80;31.60